Time;durP1;ratioP1;P1;durP2;ratioP2;P2;SDS_P1;SDS_P2;PMS_P1;PMS_P2;Temp;Humidity;BMP_temperature;BMP_pressure;BME280_temperature;BME280_humidity;BME280_pressure;Samples;Min_cycle;Max_cycle;Signal;HPM_P1;HPM_P2
2022/03/16 00:01:49;;;;;;;29.48;16.75;;;;;;;;;;4944567;28;20419;-82
2022/03/16 00:04:14;;;;;;;27.13;16.38;;;;;;;;;;4947353;28;20039;-82
2022/03/16 00:06:40;;;;;;;27.85;17.08;;;;;;;;;;4960838;28;20039;-82
2022/03/16 00:09:06;;;;;;;30.23;17.48;;;;;;;;;;4965094;28;20046;-82
2022/03/16 00:11:32;;;;;;;31.25;18.10;;;;;;;;;;4965077;28;20051;-83
2022/03/16 00:13:59;;;;;;;27.83;17.40;;;;;;;;;;4964732;28;20034;-82
2022/03/16 00:16:25;;;;;;;25.45;16.73;;;;;;;;;;4956545;28;20036;-82
2022/03/16 00:18:50;;;;;;;32.33;16.92;;;;;;;;;;4961361;28;20039;-82
2022/03/16 00:21:16;;;;;;;27.50;17.23;;;;;;;;;;4948222;28;20062;-82
2022/03/16 00:23:42;;;;;;;26.20;16.73;;;;;;;;;;4957476;28;20043;-83
2022/03/16 00:26:07;;;;;;;25.08;15.50;;;;;;;;;;4964002;28;20074;-82
2022/03/16 00:28:33;;;;;;;27.20;16.55;;;;;;;;;;4965305;28;20035;-83
2022/03/16 00:30:59;;;;;;;26.85;16.67;;;;;;;;;;4956640;28;20059;-82
2022/03/16 00:33:24;;;;;;;25.30;16.05;;;;;;;;;;4966374;28;20047;-82
2022/03/16 00:35:50;;;;;;;27.95;16.90;;;;;;;;;;4980584;28;20583;-82
2022/03/16 00:38:16;;;;;;;31.88;17.83;;;;;;;;;;4957117;28;20047;-83
2022/03/16 00:40:42;;;;;;;29.80;16.90;;;;;;;;;;4954264;28;20504;-83
2022/03/16 00:43:08;;;;;;;26.05;16.40;;;;;;;;;;4930050;28;20038;-82
2022/03/16 00:45:34;;;;;;;25.35;16.98;;;;;;;;;;4942314;28;20583;-83
2022/03/16 00:48:00;;;;;;;29.00;17.13;;;;;;;;;;4954164;28;20121;-83
2022/03/16 00:50:26;;;;;;;24.95;15.18;;;;;;;;;;4948393;28;20067;-83
2022/03/16 00:52:53;;;;;;;28.38;17.48;;;;;;;;;;4941116;28;20133;-82
2022/03/16 00:55:18;;;;;;;27.15;17.52;;;;;;;;;;4950132;28;20039;-82
2022/03/16 00:57:44;;;;;;;31.00;17.45;;;;;;;;;;4955381;28;20561;-83
2022/03/16 01:00:10;;;;;;;31.17;17.05;;;;;;;;;;4950042;28;20047;-82
2022/03/16 01:02:36;;;;;;;26.45;16.85;;;;;;;;;;4939535;28;20346;-83
2022/03/16 01:05:02;;;;;;;25.58;16.70;;;;;;;;;;4956679;28;20725;-82
2022/03/16 01:07:28;;;;;;;25.70;16.15;;;;;;;;;;4951490;28;20114;-82
2022/03/16 01:09:54;;;;;;;26.88;16.65;;;;;;;;;;4945344;28;20103;-83
2022/03/16 01:12:20;;;;;;;27.98;16.27;;;;;;;;;;4956826;28;20035;-82
2022/03/16 01:14:46;;;;;;;22.95;15.15;;;;;;;;;;4968270;28;20042;-83
2022/03/16 01:17:14;;;;;;;24.98;16.13;;;;;;;;;;4939150;28;20286;-83
2022/03/16 01:19:40;;;;;;;27.85;16.65;;;;;;;;;;4939656;28;20493;-82
2022/03/16 01:22:06;;;;;;;29.20;16.40;;;;;;;;;;4955899;28;20034;-82
2022/03/16 01:24:33;;;;;;;30.52;17.58;;;;;;;;;;4939915;28;20043;-83
2022/03/16 01:26:58;;;;;;;28.30;16.85;;;;;;;;;;4946742;28;20057;-83
2022/03/16 01:29:24;;;;;;;27.60;16.90;;;;;;;;;;4947976;28;20052;-83
2022/03/16 01:31:52;;;;;;;29.58;16.88;;;;;;;;;;4943971;28;20043;-82
2022/03/16 01:34:18;;;;;;;25.92;16.05;;;;;;;;;;4956654;28;20319;-83
2022/03/16 01:36:44;;;;;;;30.63;16.75;;;;;;;;;;4949845;28;20043;-83
2022/03/16 01:39:09;;;;;;;27.95;17.20;;;;;;;;;;4958198;28;20043;-82
2022/03/16 01:41:35;;;;;;;27.60;16.05;;;;;;;;;;4966455;28;20062;-82
2022/03/16 01:44:01;;;;;;;30.02;16.83;;;;;;;;;;4950306;28;20122;-82
2022/03/16 01:46:27;;;;;;;28.60;16.10;;;;;;;;;;4950211;28;20767;-83
2022/03/16 01:48:53;;;;;;;28.00;16.00;;;;;;;;;;4950098;28;20045;-82
2022/03/16 01:51:20;;;;;;;26.13;17.00;;;;;;;;;;4957836;28;20536;-82
2022/03/16 01:53:45;;;;;;;28.52;15.55;;;;;;;;;;4973406;28;20043;-83
2022/03/16 01:56:11;;;;;;;30.85;16.60;;;;;;;;;;4948048;28;20074;-82
2022/03/16 01:58:37;;;;;;;29.10;17.88;;;;;;;;;;4945832;28;20114;-83
2022/03/16 02:01:03;;;;;;;29.88;18.38;;;;;;;;;;4953056;28;20515;-83
2022/03/16 02:03:28;;;;;;;33.05;17.90;;;;;;;;;;4943533;28;20046;-82
2022/03/16 02:05:55;;;;;;;31.30;18.30;;;;;;;;;;4960122;28;20548;-82
2022/03/16 02:08:21;;;;;;;26.50;16.55;;;;;;;;;;4951346;28;20043;-82
2022/03/16 02:10:47;;;;;;;29.85;17.80;;;;;;;;;;4958799;28;20046;-82
2022/03/16 02:13:12;;;;;;;31.30;18.52;;;;;;;;;;4936513;28;20396;-82
2022/03/16 02:15:39;;;;;;;30.63;17.02;;;;;;;;;;4961453;28;20045;-82
2022/03/16 02:18:05;;;;;;;32.65;16.95;;;;;;;;;;4962761;28;20043;-82
2022/03/16 02:20:30;;;;;;;27.48;16.75;;;;;;;;;;4949893;28;20035;-82
2022/03/16 02:22:58;;;;;;;28.73;16.85;;;;;;;;;;4947334;28;20061;-82
2022/03/16 02:25:25;;;;;;;33.75;17.15;;;;;;;;;;4964942;28;20038;-82
2022/03/16 02:27:54;;;;;;;26.35;16.15;;;;;;;;;;4957505;28;20038;-82
2022/03/16 02:30:21;;;;;;;31.23;16.63;;;;;;;;;;4938917;28;20035;-82
2022/03/16 02:32:47;;;;;;;32.45;17.63;;;;;;;;;;4945761;28;20049;-82
2022/03/16 02:35:14;;;;;;;27.02;16.85;;;;;;;;;;4957558;28;20059;-82
2022/03/16 02:37:40;;;;;;;29.38;17.50;;;;;;;;;;4956207;28;20101;-82
2022/03/16 02:40:07;;;;;;;31.67;16.52;;;;;;;;;;4940129;28;20071;-82
2022/03/16 02:42:33;;;;;;;34.60;18.42;;;;;;;;;;4948813;28;20101;-82
2022/03/16 02:44:59;;;;;;;28.42;17.17;;;;;;;;;;4965626;28;20429;-82
2022/03/16 02:47:25;;;;;;;31.60;17.23;;;;;;;;;;4965421;28;20059;-82
2022/03/16 02:49:51;;;;;;;31.88;17.00;;;;;;;;;;4966175;28;20086;-82
2022/03/16 02:52:18;;;;;;;29.70;17.73;;;;;;;;;;4964843;28;20043;-82
2022/03/16 02:54:43;;;;;;;30.35;17.25;;;;;;;;;;4956030;28;20043;-82
2022/03/16 02:57:09;;;;;;;32.20;17.13;;;;;;;;;;4944979;28;20258;-82
2022/03/16 02:59:36;;;;;;;30.08;16.83;;;;;;;;;;4930152;29;20093;-82
2022/03/16 03:02:02;;;;;;;30.02;17.02;;;;;;;;;;4952934;28;20053;-82
2022/03/16 03:04:28;;;;;;;28.38;16.58;;;;;;;;;;4930793;28;20626;-82
2022/03/16 03:06:53;;;;;;;29.00;16.75;;;;;;;;;;4947306;28;20098;-82
2022/03/16 03:09:19;;;;;;;30.27;16.25;;;;;;;;;;4938811;28;20428;-82
2022/03/16 03:11:45;;;;;;;33.35;17.38;;;;;;;;;;4965077;28;20238;-82
2022/03/16 03:14:10;;;;;;;34.42;17.65;;;;;;;;;;4949043;28;20059;-82
2022/03/16 03:16:36;;;;;;;29.95;17.58;;;;;;;;;;4946692;28;20039;-82
2022/03/16 03:19:02;;;;;;;32.38;17.33;;;;;;;;;;4965924;28;20035;-82
2022/03/16 03:21:28;;;;;;;34.38;18.33;;;;;;;;;;4944444;28;20901;-82
2022/03/16 03:23:54;;;;;;;37.08;18.60;;;;;;;;;;4942491;28;20114;-82
2022/03/16 03:26:19;;;;;;;35.88;21.05;;;;;;;;;;4946191;28;20809;-82
2022/03/16 03:28:45;;;;;;;33.72;19.23;;;;;;;;;;4953336;28;20038;-82
2022/03/16 03:31:11;;;;;;;35.15;19.27;;;;;;;;;;4972497;28;20098;-82
2022/03/16 03:33:36;;;;;;;34.70;18.45;;;;;;;;;;4960157;28;20098;-82
2022/03/16 03:36:02;;;;;;;28.10;17.58;;;;;;;;;;4946976;28;20059;-82
2022/03/16 03:38:28;;;;;;;33.47;18.23;;;;;;;;;;4957750;28;20039;-82
2022/03/16 03:40:54;;;;;;;35.45;19.40;;;;;;;;;;4942668;28;20055;-82
2022/03/16 03:43:19;;;;;;;38.38;19.52;;;;;;;;;;4937449;28;20500;-82
2022/03/16 03:45:45;;;;;;;34.80;19.58;;;;;;;;;;4933844;28;20043;-82
2022/03/16 03:48:11;;;;;;;36.58;19.30;;;;;;;;;;4943252;28;20499;-82
2022/03/16 03:50:36;;;;;;;37.85;20.90;;;;;;;;;;4944652;28;20227;-82
2022/03/16 03:53:02;;;;;;;43.17;21.10;;;;;;;;;;4952145;28;20067;-82
2022/03/16 03:55:28;;;;;;;43.78;22.00;;;;;;;;;;4937327;28;20070;-82
2022/03/16 03:57:53;;;;;;;40.22;20.70;;;;;;;;;;4932784;28;20054;-81
2022/03/16 04:00:19;;;;;;;40.00;19.92;;;;;;;;;;4944090;28;20074;-80
2022/03/16 04:02:51;;;;;;;37.80;19.48;;;;;;;;;;4938070;28;20043;-80
2022/03/16 04:05:18;;;;;;;39.38;20.15;;;;;;;;;;4927659;28;20039;-80
2022/03/16 04:07:44;;;;;;;37.13;20.65;;;;;;;;;;4941129;28;20039;-80
2022/03/16 04:10:10;;;;;;;40.03;20.85;;;;;;;;;;4928122;28;20043;-80
2022/03/16 04:12:37;;;;;;;40.40;20.38;;;;;;;;;;4948627;28;20039;-80
2022/03/16 04:15:03;;;;;;;39.47;19.90;;;;;;;;;;4928046;28;20901;-80
2022/03/16 04:17:28;;;;;;;40.78;20.25;;;;;;;;;;4938346;28;20255;-80
2022/03/16 04:19:54;;;;;;;38.17;20.92;;;;;;;;;;4963178;28;20046;-80
2022/03/16 04:22:20;;;;;;;40.30;21.58;;;;;;;;;;4972010;28;20039;-80
2022/03/16 04:24:45;;;;;;;41.40;20.67;;;;;;;;;;4947692;28;20235;-80
2022/03/16 04:27:11;;;;;;;40.50;22.60;;;;;;;;;;4941180;28;20070;-80
2022/03/16 04:29:37;;;;;;;37.15;20.80;;;;;;;;;;4956264;28;20047;-80
2022/03/16 04:32:03;;;;;;;41.03;20.45;;;;;;;;;;4947133;28;20043;-80
2022/03/16 04:34:28;;;;;;;45.25;22.33;;;;;;;;;;4932373;28;20039;-80
2022/03/16 04:36:54;;;;;;;43.45;20.88;;;;;;;;;;4936299;28;20578;-80
2022/03/16 04:39:20;;;;;;;41.80;21.67;;;;;;;;;;4939088;28;20039;-80
2022/03/16 04:41:46;;;;;;;46.03;21.92;;;;;;;;;;4959448;28;20445;-80
2022/03/16 04:44:11;;;;;;;44.05;21.42;;;;;;;;;;4940621;28;20115;-80
2022/03/16 04:46:37;;;;;;;43.55;21.95;;;;;;;;;;4955233;28;20473;-80
2022/03/16 04:49:03;;;;;;;45.33;22.10;;;;;;;;;;4944888;28;20038;-80
2022/03/16 04:51:28;;;;;;;48.60;23.02;;;;;;;;;;4944987;28;20058;-80
2022/03/16 04:53:54;;;;;;;45.78;22.23;;;;;;;;;;4959177;28;20075;-80
2022/03/16 04:56:20;;;;;;;48.72;22.67;;;;;;;;;;4942933;28;20095;-79
2022/03/16 04:58:47;;;;;;;45.97;24.10;;;;;;;;;;4949974;28;20052;-80
2022/03/16 05:01:13;;;;;;;45.80;22.10;;;;;;;;;;4938743;28;20571;-79
2022/03/16 05:03:38;;;;;;;49.47;23.60;;;;;;;;;;4941317;28;20129;-79
2022/03/16 05:06:04;;;;;;;50.22;24.20;;;;;;;;;;4948551;28;20039;-79
2022/03/16 05:08:35;;;;;;;51.63;24.13;;;;;;;;;;4943398;28;20047;-79
2022/03/16 05:11:01;;;;;;;51.60;23.98;;;;;;;;;;4938173;28;20039;-79
2022/03/16 05:13:26;;;;;;;46.10;22.30;;;;;;;;;;4929579;28;20090;-79
2022/03/16 05:15:52;;;;;;;54.97;24.42;;;;;;;;;;4949419;28;20102;-79
2022/03/16 05:18:18;;;;;;;53.38;25.30;;;;;;;;;;4954889;28;20045;-79
2022/03/16 05:20:43;;;;;;;50.65;24.10;;;;;;;;;;4942296;28;20517;-79
2022/03/16 05:23:09;;;;;;;49.90;23.63;;;;;;;;;;4945654;28;20520;-79
2022/03/16 05:25:35;;;;;;;50.53;24.45;;;;;;;;;;4936674;28;20070;-79
2022/03/16 05:28:01;;;;;;;56.88;25.83;;;;;;;;;;4941469;28;20042;-80
2022/03/16 05:30:27;;;;;;;57.20;24.90;;;;;;;;;;4955776;28;20066;-80
2022/03/16 05:32:54;;;;;;;58.22;24.92;;;;;;;;;;4958404;28;20075;-80
2022/03/16 05:35:20;;;;;;;56.75;25.83;;;;;;;;;;4960202;28;20035;-79
2022/03/16 05:37:46;;;;;;;57.15;26.17;;;;;;;;;;4955655;28;20053;-79
2022/03/16 05:40:12;;;;;;;50.63;24.95;;;;;;;;;;4932964;28;20066;-79
2022/03/16 05:42:38;;;;;;;51.75;23.75;;;;;;;;;;4954255;28;20118;-80
2022/03/16 05:45:05;;;;;;;57.38;25.10;;;;;;;;;;4936414;28;20041;-82
2022/03/16 05:47:31;;;;;;;55.33;26.67;;;;;;;;;;4957277;28;20348;-79
2022/03/16 05:49:57;;;;;;;49.00;25.90;;;;;;;;;;4949189;28;20105;-79
2022/03/16 05:52:24;;;;;;;47.90;24.10;;;;;;;;;;4943848;28;20043;-79
2022/03/16 05:54:55;;;;;;;48.03;24.70;;;;;;;;;;4946454;28;20050;-80
2022/03/16 05:57:21;;;;;;;51.00;24.98;;;;;;;;;;4932817;28;20043;-80
2022/03/16 05:59:47;;;;;;;45.80;24.42;;;;;;;;;;4935386;28;20035;-79
2022/03/16 06:02:13;;;;;;;56.53;26.05;;;;;;;;;;4942285;28;20195;-80
2022/03/16 06:04:39;;;;;;;47.58;25.48;;;;;;;;;;4934251;28;20042;-79
2022/03/16 06:07:06;;;;;;;49.38;24.40;;;;;;;;;;4944922;28;20046;-79
2022/03/16 06:09:32;;;;;;;51.97;25.88;;;;;;;;;;4964850;28;20523;-80
2022/03/16 06:11:58;;;;;;;51.50;25.02;;;;;;;;;;4953631;28;20043;-80
2022/03/16 06:14:24;;;;;;;56.25;25.40;;;;;;;;;;4944739;28;20082;-79
2022/03/16 06:16:52;;;;;;;52.08;25.88;;;;;;;;;;4945310;28;20059;-79
2022/03/16 06:19:17;;;;;;;54.22;25.58;;;;;;;;;;4943451;28;20046;-79
2022/03/16 06:21:43;;;;;;;50.03;25.85;;;;;;;;;;4946728;28;20066;-80
2022/03/16 06:24:09;;;;;;;45.35;23.42;;;;;;;;;;4942990;28;20464;-80
2022/03/16 06:26:34;;;;;;;42.67;23.67;;;;;;;;;;4944012;28;20039;-80
2022/03/16 06:29:00;;;;;;;39.30;20.90;;;;;;;;;;4923189;28;20497;-80
2022/03/16 06:31:26;;;;;;;35.85;20.38;;;;;;;;;;4961172;28;20085;-78
2022/03/16 06:33:52;;;;;;;34.30;19.35;;;;;;;;;;4960512;28;20070;-78
2022/03/16 06:36:17;;;;;;;32.45;19.42;;;;;;;;;;4945589;28;20039;-78
2022/03/16 06:38:43;;;;;;;33.67;20.40;;;;;;;;;;4934470;28;20134;-79
2022/03/16 06:41:09;;;;;;;32.25;21.88;;;;;;;;;;4960835;28;20074;-78
2022/03/16 06:43:34;;;;;;;31.05;20.17;;;;;;;;;;4946400;28;20711;-79
2022/03/16 06:46:00;;;;;;;32.42;19.25;;;;;;;;;;4964429;28;20105;-78
2022/03/16 06:48:26;;;;;;;25.25;17.40;;;;;;;;;;4949647;28;20125;-79
2022/03/16 06:50:52;;;;;;;29.42;19.10;;;;;;;;;;4947065;28;20494;-78
2022/03/16 06:53:17;;;;;;;29.08;20.05;;;;;;;;;;4955498;28;20042;-79
2022/03/16 06:55:43;;;;;;;30.42;20.50;;;;;;;;;;4944215;28;20055;-79
2022/03/16 06:58:09;;;;;;;33.83;20.73;;;;;;;;;;4955533;28;20512;-79
2022/03/16 07:00:35;;;;;;;30.90;19.88;;;;;;;;;;4947118;28;20081;-78
2022/03/16 07:03:03;;;;;;;34.17;21.25;;;;;;;;;;4960008;28;20520;-78
2022/03/16 07:05:30;;;;;;;31.30;20.60;;;;;;;;;;4946088;28;20054;-79
2022/03/16 07:07:57;;;;;;;34.55;20.83;;;;;;;;;;4933093;28;20047;-79
2022/03/16 07:10:23;;;;;;;35.90;21.10;;;;;;;;;;4954382;28;20567;-79
2022/03/16 07:12:49;;;;;;;38.53;22.77;;;;;;;;;;4935329;28;20046;-79
2022/03/16 07:15:15;;;;;;;37.42;21.52;;;;;;;;;;4945609;28;20050;-79
2022/03/16 07:17:41;;;;;;;38.08;22.60;;;;;;;;;;4950242;28;20035;-79
2022/03/16 07:20:07;;;;;;;37.85;23.27;;;;;;;;;;4947481;28;20058;-79
2022/03/16 07:22:37;;;;;;;42.80;24.13;;;;;;;;;;4943952;28;20046;-79
2022/03/16 07:25:04;;;;;;;36.30;22.00;;;;;;;;;;4938041;28;20043;-79
2022/03/16 07:27:30;;;;;;;41.78;23.42;;;;;;;;;;4944431;28;20069;-79
2022/03/16 07:29:55;;;;;;;41.13;22.58;;;;;;;;;;4945862;28;20036;-79
2022/03/16 07:32:22;;;;;;;44.10;24.45;;;;;;;;;;4943690;28;20386;-79
2022/03/16 07:34:48;;;;;;;42.30;24.58;;;;;;;;;;4940039;28;20039;-79
2022/03/16 07:37:14;;;;;;;37.92;22.70;;;;;;;;;;4929398;28;20475;-79
2022/03/16 07:39:40;;;;;;;40.08;24.63;;;;;;;;;;4956392;28;20125;-79
2022/03/16 07:42:06;;;;;;;45.67;25.02;;;;;;;;;;4939008;28;20142;-79
2022/03/16 07:44:31;;;;;;;41.85;24.25;;;;;;;;;;4930348;28;20039;-79
2022/03/16 07:46:57;;;;;;;41.40;24.67;;;;;;;;;;4979173;28;20050;-79
2022/03/16 07:49:23;;;;;;;41.58;23.30;;;;;;;;;;4959378;28;20042;-79
2022/03/16 07:51:48;;;;;;;41.03;24.63;;;;;;;;;;4964009;28;20086;-79
2022/03/16 07:54:14;;;;;;;38.90;23.70;;;;;;;;;;4945634;28;20122;-79
2022/03/16 07:56:40;;;;;;;36.47;22.67;;;;;;;;;;4946692;28;20067;-79
2022/03/16 07:59:06;;;;;;;37.08;23.13;;;;;;;;;;4956786;28;20358;-79
2022/03/16 08:01:32;;;;;;;40.33;23.20;;;;;;;;;;4953557;28;20467;-79
2022/03/16 08:03:57;;;;;;;38.30;21.98;;;;;;;;;;4957770;28;20525;-79
2022/03/16 08:06:23;;;;;;;37.78;23.42;;;;;;;;;;4958570;28;20066;-79
2022/03/16 08:08:49;;;;;;;40.30;23.02;;;;;;;;;;4954086;28;20047;-79
2022/03/16 08:11:14;;;;;;;37.45;23.42;;;;;;;;;;4947274;28;20062;-78
2022/03/16 08:13:40;;;;;;;38.88;22.30;;;;;;;;;;4971535;28;20117;-79
2022/03/16 08:16:06;;;;;;;36.53;22.63;;;;;;;;;;4959163;28;20114;-79
2022/03/16 08:18:32;;;;;;;36.65;21.95;;;;;;;;;;4947789;28;20061;-79
2022/03/16 08:20:57;;;;;;;34.72;21.85;;;;;;;;;;4964024;28;20167;-79
2022/03/16 08:23:24;;;;;;;33.67;21.65;;;;;;;;;;4965681;28;20042;-79
2022/03/16 08:25:50;;;;;;;34.15;20.65;;;;;;;;;;4966268;28;20050;-79
2022/03/16 08:28:16;;;;;;;32.83;22.55;;;;;;;;;;4967453;28;20047;-79
2022/03/16 08:30:42;;;;;;;34.47;22.90;;;;;;;;;;4966360;28;20137;-79
2022/03/16 08:33:08;;;;;;;38.03;23.35;;;;;;;;;;4948411;28;20054;-79
2022/03/16 08:35:34;;;;;;;36.53;23.40;;;;;;;;;;4966718;28;20097;-80
2022/03/16 08:37:59;;;;;;;36.92;22.95;;;;;;;;;;4964791;28;20047;-80
2022/03/16 08:40:25;;;;;;;32.45;21.40;;;;;;;;;;4953855;28;20102;-80
2022/03/16 08:42:52;;;;;;;30.40;22.13;;;;;;;;;;4959592;28;20136;-80
2022/03/16 08:45:19;;;;;;;32.83;20.90;;;;;;;;;;4966676;28;20123;-80
2022/03/16 08:47:44;;;;;;;37.78;23.02;;;;;;;;;;4953632;28;20035;-79
2022/03/16 08:50:10;;;;;;;34.78;22.42;;;;;;;;;;4961553;28;20120;-80
2022/03/16 08:52:36;;;;;;;39.40;24.23;;;;;;;;;;4940496;28;20058;-81
2022/03/16 08:55:02;;;;;;;37.22;24.02;;;;;;;;;;4957444;28;20130;-80
2022/03/16 08:57:28;;;;;;;37.05;23.70;;;;;;;;;;4949502;28;20109;-80
2022/03/16 08:59:55;;;;;;;35.83;22.50;;;;;;;;;;4957748;28;20091;-80
2022/03/16 09:02:21;;;;;;;37.20;23.55;;;;;;;;;;4943856;28;20099;-80
2022/03/16 09:04:47;;;;;;;37.80;22.58;;;;;;;;;;4941160;28;20396;-80
2022/03/16 09:07:12;;;;;;;35.70;22.88;;;;;;;;;;4952579;28;20043;-80
2022/03/16 09:09:41;;;;;;;33.40;22.10;;;;;;;;;;4953831;28;20044;-80
2022/03/16 09:12:11;;;;;;;35.42;22.48;;;;;;;;;;4930667;29;20206;-80
2022/03/16 09:14:38;;;;;;;33.70;21.23;;;;;;;;;;4963780;28;20047;-80
2022/03/16 09:17:04;;;;;;;34.50;23.00;;;;;;;;;;4965274;28;20395;-80
2022/03/16 09:19:30;;;;;;;32.53;21.25;;;;;;;;;;4952053;28;20055;-80
2022/03/16 09:21:56;;;;;;;34.17;21.63;;;;;;;;;;4965178;28;20070;-80
2022/03/16 09:24:24;;;;;;;30.65;19.88;;;;;;;;;;4965482;28;20057;-80
2022/03/16 09:26:50;;;;;;;29.52;19.05;;;;;;;;;;4967007;28;20169;-79
2022/03/16 09:29:16;;;;;;;31.92;19.85;;;;;;;;;;4957665;28;20420;-80
2022/03/16 09:31:44;;;;;;;30.20;17.85;;;;;;;;;;4948885;28;20038;-79
2022/03/16 09:34:10;;;;;;;29.85;18.67;;;;;;;;;;4960914;28;20047;-80
2022/03/16 09:36:37;;;;;;;26.38;18.13;;;;;;;;;;4950180;28;20524;-80
2022/03/16 09:39:03;;;;;;;26.75;17.13;;;;;;;;;;4952852;28;20043;-80
2022/03/16 09:41:29;;;;;;;24.88;16.90;;;;;;;;;;4953648;28;20039;-80
2022/03/16 09:43:55;;;;;;;26.45;17.77;;;;;;;;;;4949704;28;20046;-80
2022/03/16 09:46:31;;;;;;;23.98;16.38;;;;;;;;;;4945726;28;20131;-80
2022/03/16 09:48:56;;;;;;;22.45;14.98;;;;;;;;;;4953159;28;20046;-80
2022/03/16 09:51:22;;;;;;;21.85;15.20;;;;;;;;;;4932547;28;20332;-80
2022/03/16 09:53:48;;;;;;;23.25;15.10;;;;;;;;;;4934142;28;20035;-81
2022/03/16 09:56:14;;;;;;;20.42;14.45;;;;;;;;;;4945436;28;20082;-80
2022/03/16 09:58:42;;;;;;;23.73;15.65;;;;;;;;;;4944962;28;20046;-80
2022/03/16 10:01:08;;;;;;;22.67;15.05;;;;;;;;;;4939882;28;20118;-80
2022/03/16 10:03:35;;;;;;;23.20;15.38;;;;;;;;;;4948584;28;20050;-80
2022/03/16 10:06:01;;;;;;;22.73;15.20;;;;;;;;;;4948046;28;20043;-80
2022/03/16 10:08:32;;;;;;;22.35;15.10;;;;;;;;;;4943045;28;20137;-80
2022/03/16 10:14:07;;;;;;;21.88;14.80;;;;;;;;;;4948349;28;20055;-80
2022/03/16 10:17:43;;;;;;;20.98;14.27;;;;;;;;;;4963552;28;20516;-80
2022/03/16 10:19:23;;;;;;;24.05;16.00;;;;;;;;;;4971820;28;20039;-81
2022/03/16 10:22:04;;;;;;;22.48;16.05;;;;;;;;;;4978792;28;20495;-80
2022/03/16 10:24:30;;;;;;;25.98;16.00;;;;;;;;;;4952765;28;20039;-80
2022/03/16 10:26:59;;;;;;;22.02;15.35;;;;;;;;;;4933815;28;20469;-81
2022/03/16 10:29:31;;;;;;;20.85;15.25;;;;;;;;;;4955704;28;20035;-81
2022/03/16 10:32:06;;;;;;;22.00;15.85;;;;;;;;;;4948655;28;20050;-80
2022/03/16 10:34:32;;;;;;;21.20;16.15;;;;;;;;;;4960332;28;20043;-81
2022/03/16 10:36:59;;;;;;;22.05;17.45;;;;;;;;;;4953645;28;20122;-81
2022/03/16 10:39:35;;;;;;;22.65;17.48;;;;;;;;;;4962073;28;20035;-81
2022/03/16 10:48:16;;;;;;;26.52;17.90;;;;;;;;;;4947805;28;20054;-81
2022/03/16 10:50:43;;;;;;;23.25;17.00;;;;;;;;;;4949092;28;20071;-81
2022/03/16 10:53:15;;;;;;;27.48;19.48;;;;;;;;;;4965635;28;20564;-81
2022/03/16 10:55:42;;;;;;;26.30;18.20;;;;;;;;;;4959394;28;20035;-81
2022/03/16 10:58:08;;;;;;;25.13;18.75;;;;;;;;;;4947601;28;20043;-82
2022/03/16 11:00:35;;;;;;;27.40;19.38;;;;;;;;;;4963119;28;20078;-81
2022/03/16 11:03:04;;;;;;;26.02;19.85;;;;;;;;;;4944221;28;20047;-82
2022/03/16 11:05:30;;;;;;;27.88;20.33;;;;;;;;;;4927868;28;20043;-82
2022/03/16 11:07:56;;;;;;;29.05;21.67;;;;;;;;;;4960013;28;20618;-82
2022/03/16 11:10:21;;;;;;;30.85;23.63;;;;;;;;;;4969847;28;20035;-81
2022/03/16 11:13:49;;;;;;;31.35;22.40;;;;;;;;;;4963252;28;20092;-82
2022/03/16 11:15:43;;;;;;;34.53;22.65;;;;;;;;;;4955793;28;20050;-81
2022/03/16 11:18:10;;;;;;;33.53;24.23;;;;;;;;;;4943621;28;20050;-83
2022/03/16 11:20:36;;;;;;;37.85;27.08;;;;;;;;;;4952149;28;20102;-82
2022/03/16 11:26:28;;;;;;;40.95;29.23;;;;;;;;;;4951864;28;20510;-81
2022/03/16 11:29:00;;;;;;;41.63;29.20;;;;;;;;;;4967426;28;20057;-82
2022/03/16 11:31:30;;;;;;;44.38;30.85;;;;;;;;;;4944787;28;20053;-82
2022/03/16 11:33:58;;;;;;;40.92;30.73;;;;;;;;;;4961917;28;20133;-81
2022/03/16 11:36:41;;;;;;;39.00;26.98;;;;;;;;;;4939625;28;20650;-82
2022/03/16 11:39:18;;;;;;;38.28;28.90;;;;;;;;;;4961643;28;20061;-79
2022/03/16 11:41:52;;;;;;;40.67;29.00;;;;;;;;;;4962087;28;20055;-79
2022/03/16 11:44:26;;;;;;;46.53;32.70;;;;;;;;;;4962910;28;20126;-79
2022/03/16 11:46:53;;;;;;;49.47;34.08;;;;;;;;;;4963040;28;20130;-79
2022/03/16 11:49:28;;;;;;;48.47;35.40;;;;;;;;;;4963326;28;20046;-79
2022/03/16 11:51:58;;;;;;;47.30;33.30;;;;;;;;;;4959424;28;20063;-80
2022/03/16 11:54:46;;;;;;;44.78;32.60;;;;;;;;;;4980073;28;20058;-82
2022/03/16 11:57:13;;;;;;;43.35;32.10;;;;;;;;;;4942558;28;20480;-81
2022/03/16 11:59:46;;;;;;;44.90;32.72;;;;;;;;;;4963384;28;20047;-82
2022/03/16 12:02:21;;;;;;;44.85;32.63;;;;;;;;;;4942874;28;20039;-81
2022/03/16 12:04:48;;;;;;;39.28;29.10;;;;;;;;;;4944052;28;20038;-82
2022/03/16 12:07:19;;;;;;;39.67;29.38;;;;;;;;;;4963520;28;20544;-81
2022/03/16 12:09:52;;;;;;;40.55;29.73;;;;;;;;;;4932273;28;20042;-82
2022/03/16 12:12:59;;;;;;;47.60;32.80;;;;;;;;;;4953704;28;20039;-82
2022/03/16 12:15:37;;;;;;;50.42;32.58;;;;;;;;;;4963837;28;20039;-81
2022/03/16 12:18:12;;;;;;;46.20;29.50;;;;;;;;;;4963847;28;20039;-82
2022/03/16 12:20:41;;;;;;;81.28;52.08;;;;;;;;;;4966270;28;20059;-81
2022/03/16 12:23:11;;;;;;;115.50;65.72;;;;;;;;;;4964318;28;20050;-82
2022/03/16 12:25:39;;;;;;;53.85;35.78;;;;;;;;;;4964862;28;20385;-82
2022/03/16 12:30:59;;;;;;;57.17;34.92;;;;;;;;;;4947118;28;20123;-83
2022/03/16 12:33:41;;;;;;;119.55;78.97;;;;;;;;;;4953326;28;20037;-82
2022/03/16 12:36:18;;;;;;;61.95;38.45;;;;;;;;;;4928720;28;20424;-82
2022/03/16 12:38:51;;;;;;;62.75;36.58;;;;;;;;;;4948060;28;20059;-82
2022/03/16 12:44:06;;;;;;;41.63;26.50;;;;;;;;;;4953907;28;20117;-82
2022/03/16 12:47:04;;;;;;;39.90;25.05;;;;;;;;;;4964988;28;20074;-82
2022/03/16 12:49:34;;;;;;;39.70;24.88;;;;;;;;;;4968756;28;20041;-82
2022/03/16 12:52:01;;;;;;;38.78;25.88;;;;;;;;;;4937249;28;20063;-81
2022/03/16 12:54:32;;;;;;;40.15;25.98;;;;;;;;;;4996281;28;20039;-81
2022/03/16 12:57:05;;;;;;;35.78;23.38;;;;;;;;;;4947681;28;20038;-81
2022/03/16 12:59:40;;;;;;;31.67;22.08;;;;;;;;;;4962939;28;20050;-82
2022/03/16 13:02:07;;;;;;;34.22;23.23;;;;;;;;;;4963074;28;20038;-81
2022/03/16 13:04:33;;;;;;;34.08;20.90;;;;;;;;;;4968089;28;20035;-81
2022/03/16 13:06:59;;;;;;;30.38;20.52;;;;;;;;;;4947698;28;20043;-82
2022/03/16 13:09:33;;;;;;;32.17;20.10;;;;;;;;;;4948040;28;20119;-81
2022/03/16 13:12:06;;;;;;;35.25;22.63;;;;;;;;;;4939659;28;20035;-82
2022/03/16 13:14:35;;;;;;;29.80;20.10;;;;;;;;;;4959209;28;20097;-82
2022/03/16 13:17:03;;;;;;;30.60;20.42;;;;;;;;;;4965237;28;20066;-82
2022/03/16 13:19:32;;;;;;;29.20;20.23;;;;;;;;;;4960918;28;20047;-82
2022/03/16 13:22:04;;;;;;;27.25;18.30;;;;;;;;;;4948757;28;20085;-81
2022/03/16 13:24:34;;;;;;;25.95;18.20;;;;;;;;;;4933222;28;20410;-82
2022/03/16 13:27:02;;;;;;;24.30;18.33;;;;;;;;;;4963976;28;20098;-82
2022/03/16 13:29:28;;;;;;;26.83;18.25;;;;;;;;;;4958676;28;20513;-82
2022/03/16 13:31:56;;;;;;;23.63;16.75;;;;;;;;;;4950301;28;20453;-82
2022/03/16 13:34:23;;;;;;;24.92;17.73;;;;;;;;;;4966085;28;20564;-81
2022/03/16 13:36:51;;;;;;;26.92;18.63;;;;;;;;;;4967172;28;20039;-81
2022/03/16 13:39:26;;;;;;;22.73;17.60;;;;;;;;;;4959615;28;20063;-82
2022/03/16 13:42:15;;;;;;;25.27;17.63;;;;;;;;;;4946052;28;20047;-82
2022/03/16 13:44:49;;;;;;;23.10;17.15;;;;;;;;;;4981508;28;20078;-82
2022/03/16 13:47:17;;;;;;;22.17;16.60;;;;;;;;;;4968210;28;20062;-82
2022/03/16 13:49:45;;;;;;;23.15;16.42;;;;;;;;;;4978181;28;20057;-82
2022/03/16 13:52:12;;;;;;;24.92;17.80;;;;;;;;;;4964027;28;20408;-82
2022/03/16 13:54:38;;;;;;;23.20;17.02;;;;;;;;;;4952395;28;20332;-81
2022/03/16 13:57:12;;;;;;;23.17;16.33;;;;;;;;;;4933873;28;20035;-82
2022/03/16 13:59:38;;;;;;;22.40;16.63;;;;;;;;;;4962240;28;20564;-82
2022/03/16 14:02:20;;;;;;;27.13;17.17;;;;;;;;;;4958820;28;20042;-81
2022/03/16 14:04:46;;;;;;;25.17;17.50;;;;;;;;;;4952508;28;20273;-82
2022/03/16 14:07:20;;;;;;;21.48;16.27;;;;;;;;;;4952826;28;20089;-82
2022/03/16 14:09:46;;;;;;;22.75;17.27;;;;;;;;;;4948449;28;20559;-82
2022/03/16 14:12:15;;;;;;;24.15;16.67;;;;;;;;;;4967524;28;20046;-81
2022/03/16 14:14:45;;;;;;;23.35;18.25;;;;;;;;;;4938566;28;20046;-82
2022/03/16 14:17:11;;;;;;;21.75;17.85;;;;;;;;;;4941508;28;20051;-82
2022/03/16 14:19:38;;;;;;;23.20;18.38;;;;;;;;;;4952949;28;20036;-83
2022/03/16 14:22:04;;;;;;;22.52;18.05;;;;;;;;;;4938546;28;20035;-82
2022/03/16 14:24:31;;;;;;;20.05;17.23;;;;;;;;;;4961063;28;20043;-81
2022/03/16 14:27:15;;;;;;;21.63;18.23;;;;;;;;;;4966120;28;20046;-83
2022/03/16 14:29:42;;;;;;;23.10;19.50;;;;;;;;;;4946933;28;20072;-82
2022/03/16 14:32:08;;;;;;;22.00;19.40;;;;;;;;;;4949490;28;20496;-82
2022/03/16 14:34:33;;;;;;;22.88;20.08;;;;;;;;;;4964750;28;20328;-82
2022/03/16 14:37:00;;;;;;;24.45;19.67;;;;;;;;;;4946199;28;20099;-82